Time;durP1;ratioP1;P1;durP2;ratioP2;P2;SDS_P1;SDS_P2;PMS_P1;PMS_P2;Temp;Humidity;BMP_temperature;BMP_pressure;BME280_temperature;BME280_humidity;BME280_pressure;Samples;Min_cycle;Max_cycle;Signal;HPM_P1;HPM_P2
2024/01/27 00:00:14;;;;;;;33.72;27.23;;;;;;;;;;5015931;28;20147;-78
2024/01/27 00:02:39;;;;;;;87.57;66.50;;;;;;;;;;5026038;28;20064;-77
2024/01/27 00:05:04;;;;;;;54.70;41.70;;;;;;;;;;5032425;28;20061;-77
2024/01/27 00:07:30;;;;;;;41.35;28.70;;;;;;;;;;5019483;28;20029;-77
2024/01/27 00:09:56;;;;;;;60.60;39.10;;;;;;;;;;5016287;28;20047;-77
2024/01/27 00:12:21;;;;;;;34.83;24.75;;;;;;;;;;5030798;28;20044;-79
2024/01/27 00:14:46;;;;;;;77.13;46.58;;;;;;;;;;5020217;28;20361;-80
2024/01/27 00:17:12;;;;;;;38.15;25.73;;;;;;;;;;5036151;28;20025;-79
2024/01/27 00:19:37;;;;;;;42.20;31.85;;;;;;;;;;5031891;28;20037;-79
2024/01/27 00:22:02;;;;;;;42.83;32.97;;;;;;;;;;5029398;28;20782;-78
2024/01/27 00:24:28;;;;;;;39.42;30.95;;;;;;;;;;5032715;28;20025;-76
2024/01/27 00:26:53;;;;;;;37.90;28.50;;;;;;;;;;5024484;28;20039;-78
2024/01/27 00:29:19;;;;;;;40.28;28.67;;;;;;;;;;5036848;28;20060;-79
2024/01/27 00:31:44;;;;;;;36.25;26.73;;;;;;;;;;5022189;28;20139;-78
2024/01/27 00:34:09;;;;;;;23.95;17.20;;;;;;;;;;5030145;28;20049;-79
2024/01/27 00:36:37;;;;;;;27.13;18.95;;;;;;;;;;5033959;28;20068;-78
2024/01/27 00:39:03;;;;;;;27.55;22.15;;;;;;;;;;5034114;28;20036;-80
2024/01/27 00:41:29;;;;;;;31.83;24.90;;;;;;;;;;5019186;28;20087;-81
2024/01/27 00:43:54;;;;;;;24.48;19.70;;;;;;;;;;5030737;28;20345;-77
2024/01/27 00:46:19;;;;;;;20.33;14.95;;;;;;;;;;5032688;28;20021;-77
2024/01/27 00:48:45;;;;;;;22.13;15.32;;;;;;;;;;5032910;28;20914;-78
2024/01/27 00:51:10;;;;;;;29.30;21.35;;;;;;;;;;5019228;28;20111;-79
2024/01/27 00:53:35;;;;;;;24.20;18.70;;;;;;;;;;5032780;28;20029;-77
2024/01/27 00:56:01;;;;;;;26.20;19.85;;;;;;;;;;5035749;28;20033;-77
2024/01/27 00:58:26;;;;;;;22.70;18.13;;;;;;;;;;5023113;28;20071;-79
2024/01/27 01:00:52;;;;;;;23.05;17.10;;;;;;;;;;5024426;28;21217;-77
2024/01/27 01:03:17;;;;;;;22.00;15.57;;;;;;;;;;5032517;28;20460;-79
2024/01/27 01:05:42;;;;;;;24.30;16.20;;;;;;;;;;5033844;28;20025;-79
2024/01/27 01:08:08;;;;;;;19.92;15.35;;;;;;;;;;5020160;28;20112;-78
2024/01/27 01:10:33;;;;;;;26.80;20.70;;;;;;;;;;5025172;28;20037;-77
2024/01/27 01:12:59;;;;;;;18.60;16.25;;;;;;;;;;5022948;28;20037;-77
2024/01/27 01:15:24;;;;;;;21.80;15.57;;;;;;;;;;5030086;28;20056;-80
2024/01/27 01:17:49;;;;;;;21.27;15.90;;;;;;;;;;5034753;28;20036;-77
2024/01/27 01:20:15;;;;;;;23.27;17.27;;;;;;;;;;5034833;28;20483;-77
2024/01/27 01:22:40;;;;;;;22.73;15.05;;;;;;;;;;5035891;28;20356;-79
2024/01/27 01:25:06;;;;;;;19.98;14.18;;;;;;;;;;5026400;28;20059;-77
2024/01/27 01:27:31;;;;;;;18.85;14.18;;;;;;;;;;5024484;28;20151;-77
2024/01/27 01:29:57;;;;;;;16.73;12.27;;;;;;;;;;5032193;28;20029;-78
2024/01/27 01:32:22;;;;;;;14.18;10.40;;;;;;;;;;5027333;28;20742;-78
2024/01/27 01:34:48;;;;;;;17.10;11.73;;;;;;;;;;5020347;28;20028;-80
2024/01/27 01:37:13;;;;;;;23.98;17.02;;;;;;;;;;5029305;28;20437;-78
2024/01/27 01:39:39;;;;;;;19.70;15.02;;;;;;;;;;5018755;28;20033;-78
2024/01/27 01:42:04;;;;;;;23.77;16.00;;;;;;;;;;5016817;28;20064;-76
2024/01/27 01:44:30;;;;;;;26.50;19.23;;;;;;;;;;5015731;28;20422;-77
2024/01/27 01:46:56;;;;;;;23.08;17.58;;;;;;;;;;5032469;28;20033;-78
2024/01/27 01:49:22;;;;;;;23.02;16.45;;;;;;;;;;5041113;28;20356;-76
2024/01/27 01:51:47;;;;;;;27.55;19.75;;;;;;;;;;5040063;28;20040;-78
2024/01/27 01:54:13;;;;;;;36.22;24.95;;;;;;;;;;5020120;28;20033;-78
2024/01/27 01:56:38;;;;;;;33.78;26.98;;;;;;;;;;5029902;28;20440;-78
2024/01/27 01:59:03;;;;;;;28.40;22.42;;;;;;;;;;5032324;28;20407;-76
2024/01/27 02:01:29;;;;;;;32.47;22.88;;;;;;;;;;5033352;28;20128;-76
2024/01/27 02:03:54;;;;;;;37.22;27.02;;;;;;;;;;5031448;28;20037;-76
2024/01/27 02:06:20;;;;;;;36.50;27.52;;;;;;;;;;5033339;28;20099;-76
2024/01/27 02:08:45;;;;;;;27.98;20.23;;;;;;;;;;5034271;28;20064;-77
2024/01/27 02:11:10;;;;;;;32.83;21.60;;;;;;;;;;5037025;28;20065;-77
2024/01/27 02:13:36;;;;;;;27.88;20.95;;;;;;;;;;5026883;28;20071;-77
2024/01/27 02:16:01;;;;;;;21.70;16.58;;;;;;;;;;5030981;28;20087;-78
2024/01/27 02:18:26;;;;;;;25.88;18.58;;;;;;;;;;5036561;28;20412;-77
2024/01/27 02:20:52;;;;;;;84.10;52.30;;;;;;;;;;5033998;28;20033;-78
2024/01/27 02:23:17;;;;;;;120.10;70.25;;;;;;;;;;5037082;28;20035;-79
2024/01/27 02:25:43;;;;;;;80.93;48.85;;;;;;;;;;5038967;28;20024;-79
2024/01/27 02:28:08;;;;;;;62.10;44.22;;;;;;;;;;5032492;28;20385;-79
2024/01/27 02:30:33;;;;;;;38.00;27.77;;;;;;;;;;5021838;28;20061;-78
2024/01/27 02:32:59;;;;;;;28.35;20.58;;;;;;;;;;5029181;28;20136;-80
2024/01/27 02:35:24;;;;;;;33.95;26.80;;;;;;;;;;5026350;28;20444;-77
2024/01/27 02:37:50;;;;;;;33.75;26.33;;;;;;;;;;5032686;28;20029;-78
2024/01/27 02:40:15;;;;;;;38.35;31.13;;;;;;;;;;5018825;28;20061;-79
2024/01/27 02:42:44;;;;;;;19.17;14.68;;;;;;;;;;5032701;28;20691;-80
2024/01/27 02:45:10;;;;;;;17.67;13.10;;;;;;;;;;5031476;28;20359;-80
2024/01/27 02:47:36;;;;;;;15.50;9.60;;;;;;;;;;5039328;28;20408;-78
2024/01/27 02:50:01;;;;;;;12.25;8.85;;;;;;;;;;5032308;28;20021;-79
2024/01/27 02:52:27;;;;;;;12.55;9.05;;;;;;;;;;5033881;28;20432;-78
2024/01/27 02:54:53;;;;;;;15.27;8.40;;;;;;;;;;5026643;28;20127;-76
2024/01/27 02:57:19;;;;;;;13.02;8.88;;;;;;;;;;5053477;28;20056;-77
2024/01/27 02:59:48;;;;;;;15.05;11.80;;;;;;;;;;5038189;28;20043;-79
2024/01/27 03:02:13;;;;;;;18.50;11.38;;;;;;;;;;5036437;28;20036;-79
2024/01/27 03:04:39;;;;;;;11.80;8.65;;;;;;;;;;5032140;28;20025;-77
2024/01/27 03:07:04;;;;;;;10.88;7.22;;;;;;;;;;5037246;28;20025;-77
2024/01/27 03:09:30;;;;;;;15.20;8.88;;;;;;;;;;5036116;28;20110;-78
2024/01/27 03:11:56;;;;;;;13.93;8.93;;;;;;;;;;5031176;28;20102;-77
2024/01/27 03:14:21;;;;;;;14.25;11.35;;;;;;;;;;5017202;28;20060;-78
2024/01/27 03:16:46;;;;;;;17.27;14.85;;;;;;;;;;5033750;28;20338;-78
2024/01/27 03:19:12;;;;;;;23.73;17.80;;;;;;;;;;5035296;28;20040;-78
2024/01/27 03:21:37;;;;;;;18.65;13.18;;;;;;;;;;5031849;28;20133;-77
2024/01/27 03:24:03;;;;;;;18.15;8.85;;;;;;;;;;5034030;28;20028;-77
2024/01/27 03:26:28;;;;;;;13.15;7.78;;;;;;;;;;5023263;28;20054;-78
2024/01/27 03:28:53;;;;;;;32.67;21.77;;;;;;;;;;5040591;28;20071;-79
2024/01/27 03:31:19;;;;;;;25.38;19.42;;;;;;;;;;5042362;28;20025;-77
2024/01/27 03:33:44;;;;;;;35.13;23.85;;;;;;;;;;5031584;28;20528;-77
2024/01/27 03:36:11;;;;;;;31.75;22.48;;;;;;;;;;5031608;28;20029;-76
2024/01/27 03:38:37;;;;;;;25.50;19.08;;;;;;;;;;5048175;28;20022;-78
2024/01/27 03:41:02;;;;;;;21.90;16.65;;;;;;;;;;5017089;28;20052;-79
2024/01/27 03:43:28;;;;;;;37.85;27.95;;;;;;;;;;5006377;28;20044;-76
2024/01/27 03:45:54;;;;;;;25.33;16.42;;;;;;;;;;5013790;28;20461;-77
2024/01/27 03:48:19;;;;;;;14.38;8.85;;;;;;;;;;5013130;28;20120;-75
2024/01/27 03:50:44;;;;;;;13.25;8.40;;;;;;;;;;4999893;28;20121;-74
2024/01/27 03:53:10;;;;;;;14.13;9.77;;;;;;;;;;5014270;28;20074;-76
2024/01/27 03:55:35;;;;;;;13.52;8.98;;;;;;;;;;5005676;28;20056;-76
2024/01/27 03:58:01;;;;;;;16.85;10.43;;;;;;;;;;5003644;28;20061;-76
2024/01/27 04:00:27;;;;;;;14.00;9.35;;;;;;;;;;5005537;28;20138;-78
2024/01/27 04:02:53;;;;;;;14.63;10.38;;;;;;;;;;5011632;28;20038;-75
2024/01/27 04:05:18;;;;;;;15.57;10.55;;;;;;;;;;5014147;28;20029;-75
2024/01/27 04:07:43;;;;;;;16.83;9.02;;;;;;;;;;5015113;28;20096;-76
2024/01/27 04:10:09;;;;;;;13.60;8.35;;;;;;;;;;5011902;28;20096;-76
2024/01/27 04:12:34;;;;;;;18.92;11.93;;;;;;;;;;5030787;28;20044;-76
2024/01/27 04:15:00;;;;;;;15.10;10.60;;;;;;;;;;5033486;28;20033;-76
2024/01/27 04:17:25;;;;;;;15.27;12.35;;;;;;;;;;5036882;28;20142;-76
2024/01/27 04:19:51;;;;;;;11.55;8.50;;;;;;;;;;5020517;28;20052;-77
2024/01/27 04:22:16;;;;;;;12.27;8.60;;;;;;;;;;5035893;28;20596;-76
2024/01/27 04:24:42;;;;;;;14.80;9.10;;;;;;;;;;5031919;28;20514;-76
2024/01/27 04:27:07;;;;;;;20.88;13.27;;;;;;;;;;5048792;28;20036;-76
2024/01/27 04:29:33;;;;;;;21.45;15.68;;;;;;;;;;5019740;28;20419;-76
2024/01/27 04:31:58;;;;;;;22.65;15.95;;;;;;;;;;5030166;28;20029;-76
2024/01/27 04:34:23;;;;;;;22.88;16.00;;;;;;;;;;5017794;28;20116;-76
2024/01/27 04:36:49;;;;;;;14.43;8.45;;;;;;;;;;5035594;28;20035;-75
2024/01/27 04:39:14;;;;;;;11.95;8.15;;;;;;;;;;5026841;28;20067;-75
2024/01/27 04:41:43;;;;;;;11.13;6.47;;;;;;;;;;5026746;28;20029;-78
2024/01/27 04:44:08;;;;;;;22.50;18.30;;;;;;;;;;5036329;28;20082;-76
2024/01/27 04:46:34;;;;;;;12.40;9.45;;;;;;;;;;5031559;28;20029;-77
2024/01/27 04:48:59;;;;;;;10.75;7.00;;;;;;;;;;5033471;28;20026;-77
2024/01/27 04:51:24;;;;;;;13.27;8.80;;;;;;;;;;5030845;28;20102;-77
2024/01/27 04:53:50;;;;;;;10.85;7.88;;;;;;;;;;5032683;28;20030;-76
2024/01/27 04:56:15;;;;;;;12.45;8.35;;;;;;;;;;5033356;28;20035;-76
2024/01/27 04:58:40;;;;;;;11.95;9.48;;;;;;;;;;5019345;28;20043;-78
2024/01/27 05:01:06;;;;;;;14.45;10.60;;;;;;;;;;5023392;28;20404;-77
2024/01/27 05:03:32;;;;;;;11.63;8.30;;;;;;;;;;5028542;28;20123;-78
2024/01/27 05:05:57;;;;;;;19.83;12.55;;;;;;;;;;5035317;28;20021;-78
2024/01/27 05:08:22;;;;;;;20.77;15.50;;;;;;;;;;5028824;28;20017;-78
2024/01/27 05:10:48;;;;;;;24.25;17.25;;;;;;;;;;5014734;28;20083;-78
2024/01/27 05:13:13;;;;;;;19.13;14.95;;;;;;;;;;5030398;28;20021;-78
2024/01/27 05:15:38;;;;;;;20.98;15.85;;;;;;;;;;5033769;28;20056;-78
2024/01/27 05:18:04;;;;;;;16.08;10.55;;;;;;;;;;5032456;28;20096;-77
2024/01/27 05:20:29;;;;;;;13.75;12.05;;;;;;;;;;5034664;28;20125;-78
2024/01/27 05:22:55;;;;;;;13.70;8.73;;;;;;;;;;5036268;28;20405;-77
2024/01/27 05:25:20;;;;;;;13.13;9.95;;;;;;;;;;5031496;28;20078;-78
2024/01/27 05:27:45;;;;;;;26.80;19.90;;;;;;;;;;5018433;28;20029;-78
2024/01/27 05:30:11;;;;;;;13.52;10.02;;;;;;;;;;5029897;28;20064;-78
2024/01/27 05:32:36;;;;;;;8.23;6.53;;;;;;;;;;5038821;28;20445;-78
2024/01/27 05:35:03;;;;;;;18.23;14.13;;;;;;;;;;5033358;28;20037;-77
2024/01/27 05:37:28;;;;;;;18.63;14.85;;;;;;;;;;5034170;28;20049;-79
2024/01/27 05:39:54;;;;;;;31.65;28.13;;;;;;;;;;5029986;28;21110;-79
2024/01/27 05:42:19;;;;;;;19.75;16.83;;;;;;;;;;5031515;28;20029;-80
2024/01/27 05:44:45;;;;;;;14.95;13.35;;;;;;;;;;5028340;28;20033;-80
2024/01/27 05:47:10;;;;;;;13.10;10.65;;;;;;;;;;5019234;28;20029;-80
2024/01/27 05:49:36;;;;;;;15.98;13.68;;;;;;;;;;5031507;28;20037;-79
2024/01/27 05:52:01;;;;;;;12.10;10.77;;;;;;;;;;5035912;28;20478;-78
2024/01/27 05:54:26;;;;;;;10.60;9.20;;;;;;;;;;5036814;28;20465;-77
2024/01/27 05:56:52;;;;;;;25.10;20.13;;;;;;;;;;5029415;28;20025;-77
2024/01/27 05:59:17;;;;;;;11.48;10.30;;;;;;;;;;5022793;28;20032;-78
2024/01/27 06:01:44;;;;;;;10.40;9.27;;;;;;;;;;5034779;28;20029;-77
2024/01/27 06:04:10;;;;;;;11.85;9.57;;;;;;;;;;5024668;28;20021;-78
2024/01/27 06:06:38;;;;;;;8.40;7.53;;;;;;;;;;5031250;28;20021;-78
2024/01/27 06:09:03;;;;;;;6.75;5.47;;;;;;;;;;5012777;28;20049;-77
2024/01/27 06:11:29;;;;;;;8.82;6.90;;;;;;;;;;5016618;28;20060;-78
2024/01/27 06:13:55;;;;;;;10.85;9.75;;;;;;;;;;5015034;28;20448;-79
2024/01/27 06:16:20;;;;;;;10.65;8.35;;;;;;;;;;5015497;28;20056;-79
2024/01/27 06:18:46;;;;;;;8.98;6.32;;;;;;;;;;5020151;28;20522;-77
2024/01/27 06:21:11;;;;;;;7.40;6.35;;;;;;;;;;5018169;28;20040;-76
2024/01/27 06:23:36;;;;;;;11.38;8.82;;;;;;;;;;5015810;28;20028;-76
2024/01/27 06:26:06;;;;;;;9.05;7.38;;;;;;;;;;5015100;28;20432;-76
2024/01/27 06:28:31;;;;;;;11.02;8.35;;;;;;;;;;5014571;28;20087;-76
2024/01/27 06:30:57;;;;;;;13.50;12.05;;;;;;;;;;5016084;28;20025;-78
2024/01/27 06:33:23;;;;;;;9.38;7.95;;;;;;;;;;5014024;28;20329;-78
2024/01/27 06:35:48;;;;;;;7.78;6.95;;;;;;;;;;5030886;28;20041;-77
2024/01/27 06:38:14;;;;;;;26.17;22.45;;;;;;;;;;5034707;28;20029;-78
2024/01/27 06:40:39;;;;;;;12.35;10.90;;;;;;;;;;5031140;28;20049;-76
2024/01/27 06:43:05;;;;;;;22.35;20.10;;;;;;;;;;5031965;28;20024;-76
2024/01/27 06:45:30;;;;;;;17.23;15.32;;;;;;;;;;5035592;28;20413;-77
2024/01/27 06:47:56;;;;;;;28.30;24.23;;;;;;;;;;5034065;28;20017;-79
2024/01/27 06:50:22;;;;;;;35.08;28.98;;;;;;;;;;5014382;28;20093;-77
2024/01/27 06:52:48;;;;;;;25.42;21.38;;;;;;;;;;5025138;28;20439;-79
2024/01/27 06:55:13;;;;;;;24.05;21.60;;;;;;;;;;5025888;28;20043;-77
2024/01/27 06:57:40;;;;;;;12.55;9.93;;;;;;;;;;5027822;28;20025;-76
2024/01/27 07:00:06;;;;;;;14.02;11.63;;;;;;;;;;5028028;28;20128;-77
2024/01/27 07:02:31;;;;;;;14.88;13.57;;;;;;;;;;5028223;28;20139;-77
2024/01/27 07:04:57;;;;;;;20.35;16.75;;;;;;;;;;5030961;28;20044;-77
2024/01/27 07:07:25;;;;;;;27.13;24.23;;;;;;;;;;5029588;28;20463;-76
2024/01/27 07:09:50;;;;;;;28.05;22.27;;;;;;;;;;5027217;28;20048;-73
2024/01/27 07:12:15;;;;;;;22.13;18.85;;;;;;;;;;5030785;28;20325;-73
2024/01/27 07:14:41;;;;;;;13.43;10.98;;;;;;;;;;5028513;28;20086;-74
2024/01/27 07:17:06;;;;;;;52.97;43.15;;;;;;;;;;5030434;28;20028;-76
2024/01/27 07:19:32;;;;;;;26.92;24.00;;;;;;;;;;5024648;28;20028;-78
2024/01/27 07:21:57;;;;;;;13.65;11.57;;;;;;;;;;5027397;28;20189;-76
2024/01/27 07:24:23;;;;;;;10.68;8.85;;;;;;;;;;5027328;28;20430;-76
2024/01/27 07:26:48;;;;;;;16.83;11.98;;;;;;;;;;5025630;28;20355;-74
2024/01/27 07:29:13;;;;;;;10.52;9.35;;;;;;;;;;5023568;28;20029;-74
2024/01/27 07:31:39;;;;;;;15.10;12.95;;;;;;;;;;5020621;28;20036;-75
2024/01/27 07:34:06;;;;;;;14.82;12.85;;;;;;;;;;5020387;28;20049;-74
2024/01/27 07:36:32;;;;;;;20.52;18.48;;;;;;;;;;5019955;28;20029;-74
2024/01/27 07:38:58;;;;;;;12.20;10.95;;;;;;;;;;5031347;28;20031;-76
2024/01/27 07:41:23;;;;;;;30.23;26.00;;;;;;;;;;5034939;28;20085;-75
2024/01/27 07:43:48;;;;;;;13.02;11.68;;;;;;;;;;5032339;28;20040;-76
2024/01/27 07:46:14;;;;;;;23.10;17.13;;;;;;;;;;5017755;28;20087;-74
2024/01/27 07:48:39;;;;;;;19.42;15.45;;;;;;;;;;5018123;28;20429;-75
2024/01/27 07:51:04;;;;;;;17.92;16.00;;;;;;;;;;5018185;28;20028;-75
2024/01/27 07:53:30;;;;;;;24.15;21.50;;;;;;;;;;5016520;28;20037;-77
2024/01/27 07:55:56;;;;;;;32.53;27.38;;;;;;;;;;5015843;28;20100;-75
2024/01/27 07:58:21;;;;;;;45.83;33.75;;;;;;;;;;5014771;28;20472;-76
2024/01/27 08:00:47;;;;;;;19.13;17.10;;;;;;;;;;5031341;28;20033;-78
2024/01/27 08:03:12;;;;;;;18.98;17.08;;;;;;;;;;5040177;28;20040;-77
2024/01/27 08:05:37;;;;;;;28.15;21.65;;;;;;;;;;5031674;28;20052;-76
2024/01/27 08:08:03;;;;;;;21.35;16.73;;;;;;;;;;5037797;28;20030;-74
2024/01/27 08:10:29;;;;;;;21.77;17.85;;;;;;;;;;5035784;28;20456;-76
2024/01/27 08:12:54;;;;;;;35.22;28.05;;;;;;;;;;5023946;28;20021;-75
2024/01/27 08:15:19;;;;;;;17.80;15.85;;;;;;;;;;5015123;28;20029;-75
2024/01/27 08:17:45;;;;;;;17.13;14.95;;;;;;;;;;5016211;28;20524;-76
2024/01/27 08:20:10;;;;;;;31.98;28.60;;;;;;;;;;5013555;28;20037;-75
2024/01/27 08:22:36;;;;;;;30.17;26.58;;;;;;;;;;5019357;28;21093;-75
2024/01/27 08:25:01;;;;;;;24.95;22.15;;;;;;;;;;5016964;28;20360;-75
2024/01/27 08:27:26;;;;;;;12.38;11.07;;;;;;;;;;5036370;28;20036;-76
2024/01/27 08:29:52;;;;;;;17.63;15.93;;;;;;;;;;5036265;28;20079;-75
2024/01/27 08:32:19;;;;;;;20.25;18.25;;;;;;;;;;5040535;28;20486;-76
2024/01/27 08:34:44;;;;;;;22.88;19.88;;;;;;;;;;5017725;28;20021;-76
2024/01/27 08:37:18;;;;;;;27.55;24.75;;;;;;;;;;5021459;28;20025;-77
2024/01/27 08:39:43;;;;;;;16.45;14.75;;;;;;;;;;5016523;28;20041;-78
2024/01/27 08:42:09;;;;;;;15.90;14.05;;;;;;;;;;5017528;28;20081;-76
2024/01/27 08:44:34;;;;;;;26.63;23.70;;;;;;;;;;5018922;28;20037;-77
2024/01/27 08:46:59;;;;;;;9.80;8.77;;;;;;;;;;5016076;28;20036;-77
2024/01/27 08:49:24;;;;;;;6.00;5.40;;;;;;;;;;5016961;28;20108;-75
2024/01/27 08:51:50;;;;;;;15.70;13.48;;;;;;;;;;5017239;28;20057;-77
2024/01/27 08:54:15;;;;;;;14.80;12.65;;;;;;;;;;5019238;28;21968;-76
2024/01/27 08:56:41;;;;;;;16.88;13.75;;;;;;;;;;5015501;28;20689;-76
2024/01/27 08:59:06;;;;;;;11.20;8.60;;;;;;;;;;5025622;28;20113;-77
2024/01/27 09:01:32;;;;;;;29.38;23.13;;;;;;;;;;5014118;28;21135;-75
2024/01/27 09:03:57;;;;;;;27.60;22.60;;;;;;;;;;5022441;28;20029;-71
2024/01/27 09:06:22;;;;;;;17.15;12.65;;;;;;;;;;5024996;28;20115;-73
2024/01/27 09:08:48;;;;;;;26.20;20.70;;;;;;;;;;5021907;28;20159;-72
2024/01/27 09:11:13;;;;;;;12.07;9.80;;;;;;;;;;5025141;28;20443;-72
2024/01/27 09:13:39;;;;;;;11.85;10.20;;;;;;;;;;5017047;28;20038;-73
2024/01/27 09:16:04;;;;;;;8.15;6.65;;;;;;;;;;5016281;28;20032;-73
2024/01/27 09:18:29;;;;;;;7.18;4.68;;;;;;;;;;5017505;28;20134;-78
2024/01/27 09:20:55;;;;;;;9.02;7.32;;;;;;;;;;5018425;28;20071;-74
2024/01/27 09:23:20;;;;;;;30.58;21.58;;;;;;;;;;5026738;28;20021;-72
2024/01/27 09:25:46;;;;;;;9.57;7.60;;;;;;;;;;5029324;28;20433;-74
2024/01/27 09:28:12;;;;;;;15.15;10.85;;;;;;;;;;5024487;28;20037;-74
2024/01/27 09:30:37;;;;;;;8.95;8.00;;;;;;;;;;5023861;28;20558;-73
2024/01/27 09:33:03;;;;;;;29.88;22.35;;;;;;;;;;5027699;28;20052;-75
2024/01/27 09:35:28;;;;;;;12.90;11.52;;;;;;;;;;5026174;28;20025;-73
2024/01/27 09:37:53;;;;;;;20.92;14.95;;;;;;;;;;5025300;28;20025;-74
2024/01/27 09:40:20;;;;;;;19.42;13.73;;;;;;;;;;5026384;28;20040;-75
2024/01/27 09:42:51;;;;;;;33.03;25.33;;;;;;;;;;5025975;28;20029;-74
2024/01/27 09:45:17;;;;;;;24.27;17.27;;;;;;;;;;5027268;28;23020;-73
2024/01/27 09:47:43;;;;;;;28.58;21.58;;;;;;;;;;5022373;28;20039;-74
2024/01/27 09:50:10;;;;;;;23.83;18.65;;;;;;;;;;5022009;28;20368;-76
2024/01/27 09:52:35;;;;;;;26.42;18.95;;;;;;;;;;5024660;28;20033;-76
2024/01/27 09:55:01;;;;;;;22.55;16.10;;;;;;;;;;5026985;28;20094;-75
2024/01/27 09:57:26;;;;;;;14.60;11.50;;;;;;;;;;5025538;28;20037;-74
2024/01/27 09:59:52;;;;;;;11.25;8.25;;;;;;;;;;5028492;28;20449;-73
2024/01/27 10:02:18;;;;;;;35.92;23.40;;;;;;;;;;5026852;28;20029;-73
2024/01/27 10:04:45;;;;;;;5.53;5.03;;;;;;;;;;5026756;28;20403;-75
2024/01/27 10:07:10;;;;;;;6.90;6.20;;;;;;;;;;5022986;28;21324;-76
2024/01/27 10:09:36;;;;;;;10.43;9.25;;;;;;;;;;5022487;28;20021;-73
2024/01/27 10:12:03;;;;;;;24.55;17.63;;;;;;;;;;5027257;28;20032;-72
2024/01/27 10:14:40;;;;;;;17.30;14.80;;;;;;;;;;5022142;28;20031;-72
2024/01/27 10:17:05;;;;;;;15.13;11.75;;;;;;;;;;5021131;28;20029;-75
2024/01/27 10:19:30;;;;;;;8.13;6.60;;;;;;;;;;5024556;28;20036;-75
2024/01/27 10:22:02;;;;;;;7.10;4.80;;;;;;;;;;5021308;28;20028;-72
2024/01/27 10:24:28;;;;;;;5.50;4.80;;;;;;;;;;5022579;28;20032;-74
2024/01/27 10:27:03;;;;;;;7.40;5.82;;;;;;;;;;5020885;28;20361;-71
2024/01/27 10:29:29;;;;;;;5.47;4.80;;;;;;;;;;5038029;28;20034;-71
2024/01/27 10:31:54;;;;;;;5.90;5.22;;;;;;;;;;5024311;28;21266;-72
2024/01/27 10:34:21;;;;;;;14.88;13.23;;;;;;;;;;5025788;28;20076;-75
2024/01/27 10:36:46;;;;;;;11.25;9.25;;;;;;;;;;5025494;28;20032;-73
2024/01/27 10:39:20;;;;;;;13.90;12.32;;;;;;;;;;5026759;28;20439;-73
2024/01/27 10:41:46;;;;;;;13.07;9.95;;;;;;;;;;5026273;28;20115;-71
2024/01/27 10:44:14;;;;;;;6.03;5.43;;;;;;;;;;5025340;28;20033;-75
2024/01/27 10:46:39;;;;;;;6.05;4.97;;;;;;;;;;5022652;28;20125;-74
2024/01/27 10:49:06;;;;;;;5.70;5.10;;;;;;;;;;5024490;28;20512;-73
2024/01/27 10:51:32;;;;;;;17.05;11.35;;;;;;;;;;5023713;28;20048;-71
2024/01/27 10:54:02;;;;;;;8.95;6.78;;;;;;;;;;5028264;28;20021;-77
2024/01/27 10:56:29;;;;;;;9.90;8.82;;;;;;;;;;5029069;28;20440;-76
2024/01/27 10:58:56;;;;;;;9.05;8.15;;;;;;;;;;5031268;28;20455;-76
2024/01/27 11:01:22;;;;;;;15.48;10.93;;;;;;;;;;5028798;28;20037;-80
2024/01/27 11:03:48;;;;;;;9.00;7.90;;;;;;;;;;5031265;28;20452;-76
2024/01/27 11:06:14;;;;;;;14.90;13.18;;;;;;;;;;5028219;28;20045;-76
2024/01/27 11:08:40;;;;;;;18.88;16.92;;;;;;;;;;5025686;28;20056;-79
2024/01/27 11:11:05;;;;;;;16.50;14.80;;;;;;;;;;5025804;28;20064;-74
2024/01/27 11:13:33;;;;;;;10.27;9.23;;;;;;;;;;5028381;28;20053;-72
2024/01/27 11:15:59;;;;;;;18.02;14.25;;;;;;;;;;5027778;28;20100;-71
2024/01/27 11:18:25;;;;;;;12.27;11.07;;;;;;;;;;5021726;28;20040;-75
2024/01/27 11:20:54;;;;;;;25.75;21.77;;;;;;;;;;5022884;28;20037;-76
2024/01/27 11:23:19;;;;;;;31.85;28.42;;;;;;;;;;5025383;28;20044;-74
2024/01/27 11:25:46;;;;;;;24.90;22.27;;;;;;;;;;5019781;28;20032;-75
2024/01/27 11:28:15;;;;;;;21.95;19.83;;;;;;;;;;5026614;28;20021;-77
2024/01/27 11:30:48;;;;;;;6.60;5.28;;;;;;;;;;5016517;28;20041;-73
2024/01/27 11:33:13;;;;;;;8.75;7.18;;;;;;;;;;5017815;28;20068;-74
2024/01/27 11:35:39;;;;;;;30.35;23.70;;;;;;;;;;5015977;28;20114;-76
2024/01/27 11:38:04;;;;;;;11.15;9.48;;;;;;;;;;5015647;28;20467;-74
2024/01/27 11:40:30;;;;;;;24.45;19.23;;;;;;;;;;5018200;28;20349;-74
2024/01/27 11:42:59;;;;;;;52.15;42.72;;;;;;;;;;5015968;28;20064;-74
2024/01/27 11:45:25;;;;;;;20.45;17.45;;;;;;;;;;5026125;28;20037;-74
2024/01/27 11:47:51;;;;;;;33.80;28.25;;;;;;;;;;5015667;28;20032;-74
2024/01/27 11:50:20;;;;;;;27.88;24.30;;;;;;;;;;5016134;28;20029;-74
2024/01/27 11:52:48;;;;;;;24.45;21.88;;;;;;;;;;5017327;28;20021;-75
2024/01/27 11:55:15;;;;;;;11.45;8.50;;;;;;;;;;5015791;28;20029;-73
2024/01/27 11:57:41;;;;;;;31.88;26.90;;;;;;;;;;5015283;28;20418;-73
2024/01/27 12:00:06;;;;;;;42.53;34.90;;;;;;;;;;5017962;28;20040;-75
2024/01/27 12:02:32;;;;;;;18.60;15.68;;;;;;;;;;5020308;28;20032;-73
2024/01/27 12:04:57;;;;;;;15.55;11.98;;;;;;;;;;5030100;28;20448;-74
2024/01/27 12:07:22;;;;;;;15.63;13.00;;;;;;;;;;5036391;28;20033;-80
2024/01/27 12:09:51;;;;;;;29.77;24.50;;;;;;;;;;5032113;28;20444;-74
2024/01/27 12:12:16;;;;;;;24.23;18.60;;;;;;;;;;5018788;28;20056;-74
2024/01/27 12:14:44;;;;;;;20.02;14.95;;;;;;;;;;5018981;28;20056;-74
2024/01/27 12:17:10;;;;;;;21.75;18.13;;;;;;;;;;5018604;28;20086;-75
2024/01/27 12:19:36;;;;;;;13.15;11.05;;;;;;;;;;5031932;28;20052;-76
2024/01/27 12:22:02;;;;;;;14.65;11.52;;;;;;;;;;5017295;28;20132;-74
2024/01/27 12:24:27;;;;;;;18.23;14.48;;;;;;;;;;5018361;28;20033;-75
2024/01/27 12:26:55;;;;;;;13.00;11.10;;;;;;;;;;5017030;28;20475;-76
2024/01/27 12:29:20;;;;;;;32.35;24.48;;;;;;;;;;5020352;28;20025;-76
2024/01/27 12:31:46;;;;;;;60.88;40.78;;;;;;;;;;5017114;28;20025;-78
2024/01/27 12:34:11;;;;;;;55.97;39.20;;;;;;;;;;5019980;28;20512;-77
2024/01/27 12:36:40;;;;;;;37.20;29.02;;;;;;;;;;5024469;28;20029;-77
2024/01/27 12:39:06;;;;;;;20.55;14.13;;;;;;;;;;5022714;28;20083;-78
2024/01/27 12:41:33;;;;;;;61.63;48.90;;;;;;;;;;5024901;28;20179;-76
2024/01/27 12:43:59;;;;;;;22.30;18.27;;;;;;;;;;5014919;28;21105;-77
2024/01/27 12:46:24;;;;;;;18.83;15.70;;;;;;;;;;5027771;28;20063;-77
2024/01/27 12:48:49;;;;;;;6.72;5.97;;;;;;;;;;5020760;28;20447;-77
2024/01/27 12:51:15;;;;;;;12.18;8.23;;;;;;;;;;5018228;28;20089;-76
2024/01/27 12:53:44;;;;;;;39.45;28.30;;;;;;;;;;5017795;28;20425;-77
2024/01/27 12:56:11;;;;;;;63.72;47.85;;;;;;;;;;5018618;28;20348;-77
2024/01/27 12:58:36;;;;;;;49.72;39.45;;;;;;;;;;5018360;28;20045;-76
2024/01/27 13:01:01;;;;;;;46.72;38.40;;;;;;;;;;5021173;28;20032;-77
2024/01/27 13:03:27;;;;;;;19.02;17.13;;;;;;;;;;5016845;28;20151;-78
2024/01/27 13:05:53;;;;;;;9.23;8.30;;;;;;;;;;5021692;28;20079;-74
2024/01/27 13:08:19;;;;;;;10.95;9.75;;;;;;;;;;5016104;28;20022;-74
2024/01/27 13:10:44;;;;;;;6.20;5.57;;;;;;;;;;5015572;28;20033;-76
2024/01/27 13:13:09;;;;;;;11.23;9.77;;;;;;;;;;5014660;28;20025;-79
2024/01/27 13:15:35;;;;;;;10.27;8.77;;;;;;;;;;5019186;28;20033;-77
2024/01/27 13:18:00;;;;;;;17.60;14.25;;;;;;;;;;5040684;28;20033;-78
2024/01/27 13:20:26;;;;;;;18.10;14.55;;;;;;;;;;5025179;28;20037;-75
2024/01/27 13:22:53;;;;;;;13.63;11.50;;;;;;;;;;5025202;28;20659;-78
2024/01/27 13:25:19;;;;;;;10.65;9.35;;;;;;;;;;5023794;28;20055;-76
2024/01/27 13:27:45;;;;;;;11.48;9.35;;;;;;;;;;5021128;28;20493;-75
2024/01/27 13:30:11;;;;;;;23.38;20.73;;;;;;;;;;5021574;28;20040;-77
2024/01/27 13:32:36;;;;;;;8.25;6.50;;;;;;;;;;5020758;28;20419;-75
2024/01/27 13:35:02;;;;;;;9.75;8.50;;;;;;;;;;5020138;28;20024;-75
2024/01/27 13:37:33;;;;;;;11.15;9.90;;;;;;;;;;5023409;28;20356;-76
2024/01/27 13:39:58;;;;;;;12.63;10.93;;;;;;;;;;5023173;28;20122;-76
2024/01/27 13:42:24;;;;;;;10.18;8.00;;;;;;;;;;5025314;28;20517;-74
2024/01/27 13:44:49;;;;;;;9.48;7.50;;;;;;;;;;5023090;28;20029;-76
2024/01/27 13:47:14;;;;;;;10.57;7.63;;;;;;;;;;5022273;28;20032;-74
2024/01/27 13:49:40;;;;;;;14.77;10.95;;;;;;;;;;5026649;28;20020;-74
2024/01/27 13:52:05;;;;;;;7.45;5.95;;;;;;;;;;5023774;28;20067;-76
2024/01/27 13:54:32;;;;;;;8.85;6.45;;;;;;;;;;5025410;28;20348;-76
2024/01/27 13:56:58;;;;;;;10.60;7.90;;;;;;;;;;5019560;28;20021;-75
2024/01/27 13:59:23;;;;;;;11.80;7.88;;;;;;;;;;5026182;28;20033;-74
2024/01/27 14:01:49;;;;;;;8.73;7.50;;;;;;;;;;5027056;28;20057;-73
2024/01/27 14:04:14;;;;;;;9.55;5.80;;;;;;;;;;5020340;28;20053;-78
2024/01/27 14:06:39;;;;;;;16.00;11.48;;;;;;;;;;5023524;28;20044;-76
2024/01/27 14:09:05;;;;;;;11.45;8.25;;;;;;;;;;5019203;28;20029;-77
2024/01/27 14:11:30;;;;;;;17.58;12.88;;;;;;;;;;5023198;28;20102;-75
2024/01/27 14:13:56;;;;;;;18.20;13.55;;;;;;;;;;5025938;28;20086;-77